Time;durP1;ratioP1;P1;durP2;ratioP2;P2;SDS_P1;SDS_P2;PMS_P1;PMS_P2;Temp;Humidity;BMP_temperature;BMP_pressure;BME280_temperature;BME280_humidity;BME280_pressure;Samples;Min_cycle;Max_cycle;Signal;HPM_P1;HPM_P2
2022/09/08 00:00:49;;;;;;;4.58;2.83;;;;;;;9.89;74.40;99924.33;1692258;83;20942;-59
2022/09/08 00:03:20;;;;;;;4.72;2.60;;;;;;;9.86;74.48;99918.78;1688910;83;21291;-59
2022/09/08 00:05:52;;;;;;;5.15;3.20;;;;;;;9.90;74.79;99923.41;1688586;83;20943;-59
2022/09/08 00:08:20;;;;;;;4.35;2.90;;;;;;;9.89;74.68;99921.72;1698837;83;20957;-59
2022/09/08 00:10:51;;;;;;;8.05;3.27;;;;;;;9.89;74.85;99915.20;1699636;83;21169;-59
2022/09/08 00:13:18;;;;;;;4.37;2.85;;;;;;;9.97;74.89;99919.64;1685811;84;20931;-59
2022/09/08 00:15:45;;;;;;;7.85;3.02;;;;;;;10.01;75.19;99919.89;1688403;84;25544;-59
2022/09/08 00:18:12;;;;;;;3.52;2.60;;;;;;;10.02;75.22;99917.67;1697072;83;20951;-59
2022/09/08 00:20:39;;;;;;;;;;;;;;;10.01;75.32;99912.53;1690440;84;21068;-59
2022/09/08 00:23:05;;;;;;;9.10;3.62;;;;;;;10.01;75.63;99917.28;1690145;84;21088;-59
2022/09/08 00:25:32;;;;;;;7.27;2.77;;;;;;;10.00;75.64;99918.67;1690955;83;20990;-58
2022/09/08 00:27:59;;;;;;;8.18;3.33;;;;;;;10.00;75.79;99918.20;1691083;84;20950;-59
2022/09/08 00:30:26;;;;;;;6.78;3.50;;;;;;;10.00;75.77;99914.30;1686715;83;20922;-59
2022/09/08 00:32:53;;;;;;;7.10;3.42;;;;;;;10.01;75.66;99918.59;1687855;83;20980;-59
2022/09/08 00:35:21;;;;;;;7.20;3.03;;;;;;;10.02;75.68;99922.88;1718474;83;21100;-59
2022/09/08 00:37:49;;;;;;;8.38;3.62;;;;;;;10.06;75.98;99920.55;1688061;84;21249;-59
2022/09/08 00:40:16;;;;;;;8.30;2.98;;;;;;;10.07;75.96;99923.55;1692413;84;20984;-59
2022/09/08 00:42:43;;;;;;;6.92;2.80;;;;;;;10.01;75.72;99924.27;1692421;84;20934;-59
2022/09/08 00:45:17;;;;;;;4.67;2.80;;;;;;;9.89;75.72;99921.72;1693211;83;20980;-59
2022/09/08 00:47:51;;;;;;;8.20;2.65;;;;;;;9.78;75.66;99926.53;1716950;81;21878;-59
2022/09/08 00:50:23;;;;;;;5.83;3.35;;;;;;;9.66;75.77;99928.30;1690127;83;21006;-58
2022/09/08 00:53:00;;;;;;;8.83;2.80;;;;;;;9.56;75.89;99929.98;1660773;84;20884;-59
2022/09/08 00:55:28;;;;;;;4.22;2.87;;;;;;;9.49;76.16;99920.70;1686810;83;20996;-59
2022/09/08 00:57:54;;;;;;;5.78;3.02;;;;;;;9.45;76.35;99917.83;1700291;83;20970;-59
2022/09/08 01:00:22;;;;;;;8.20;2.70;;;;;;;9.46;76.67;99916.91;1695134;83;21967;-58
2022/09/08 01:02:49;;;;;;;3.98;2.37;;;;;;;9.45;76.56;99913.92;1704229;83;20941;-59
2022/09/08 01:05:20;;;;;;;3.60;2.58;;;;;;;9.44;76.76;99914.84;1687073;83;20925;-59
2022/09/08 01:14:12;;;;;;;3.83;2.62;;;;;;;9.30;76.87;99915.38;1656984;85;21516;-59
2022/09/08 01:16:42;;;;;;;4.25;2.62;;;;;;;9.21;76.72;99913.57;1652396;85;21087;-59
2022/09/08 01:19:30;;;;;;;5.78;2.55;;;;;;;9.15;76.94;99915.50;1668547;85;21945;-59
2022/09/08 01:22:42;;;;;;;5.47;2.87;;;;;;;9.12;77.14;99911.71;1652925;85;20910;-59
2022/09/08 01:25:50;;;;;;;7.12;2.67;;;;;;;9.13;77.37;99918.64;1649060;85;21466;-59
2022/09/08 01:28:49;;;;;;;6.47;3.20;;;;;;;9.14;77.35;99909.91;1565873;89;21537;-59
2022/09/08 01:31:17;;;;;;;5.92;2.70;;;;;;;9.13;77.58;99907.34;1565397;90;20963;-59
2022/09/08 01:33:44;;;;;;;10.78;3.75;;;;;;;9.17;77.82;99907.64;1566381;90;21058;-59
2022/09/08 01:36:15;;;;;;;7.97;3.30;;;;;;;9.22;77.85;99909.62;1562793;90;20980;-58
2022/09/08 01:38:43;;;;;;;5.62;2.72;;;;;;;9.27;77.88;99910.72;1565683;90;20988;-59
2022/09/08 01:41:10;;;;;;;4.83;2.72;;;;;;;9.33;77.93;99906.60;1562679;90;21616;-59
2022/09/08 01:43:37;;;;;;;5.92;2.37;;;;;;;9.31;77.72;99908.41;1536357;92;21530;-59
2022/09/08 01:46:04;;;;;;;4.42;2.67;;;;;;;9.26;77.67;99918.16;1580893;89;20950;-59
2022/09/08 01:48:31;;;;;;;4.35;2.80;;;;;;;9.21;77.61;99913.57;1578750;89;20982;-59
2022/09/08 01:51:04;;;;;;;5.78;2.50;;;;;;;9.15;77.69;99904.23;1579552;90;20970;-59
2022/09/08 01:53:29;;;;;;;3.02;2.37;;;;;;;9.11;77.88;99902.21;1573937;90;21412;-59
2022/09/08 01:55:56;;;;;;;4.10;2.30;;;;;;;9.10;78.01;99897.92;1579644;90;20988;-59
2022/09/08 01:58:22;;;;;;;5.85;2.52;;;;;;;9.11;78.10;99903.97;1573763;90;21482;-59
2022/09/08 02:00:49;;;;;;;4.03;3.00;;;;;;;9.12;78.18;99909.11;1573713;90;21030;-59
2022/09/08 02:03:16;;;;;;;7.33;2.53;;;;;;;9.07;78.08;99903.22;1576521;90;20960;-59
2022/09/08 02:05:44;;;;;;;8.38;3.02;;;;;;;9.06;78.30;99904.14;1687416;82;21127;-59
2022/09/08 02:08:11;;;;;;;5.70;2.20;;;;;;;9.08;78.35;99897.13;1706628;83;20945;-59
2022/09/08 02:10:38;;;;;;;;;;;;;;;9.11;78.27;99894.40;1681265;84;21010;-59
2022/09/08 02:13:05;;;;;;;5.58;2.10;;;;;;;9.16;78.42;99889.86;1674740;83;20102;-59
2022/09/08 02:15:32;;;;;;;5.03;1.87;;;;;;;9.21;78.37;99900.09;1699606;83;20977;-58
2022/09/08 02:17:59;;;;;;;5.12;2.22;;;;;;;9.26;78.54;99899.91;1709928;82;20890;-58
2022/09/08 02:20:27;;;;;;;2.92;1.98;;;;;;;9.21;78.27;99897.48;1713718;82;20878;-59
2022/09/08 02:22:54;;;;;;;;;;;;;;;9.18;78.30;99902.81;1713217;82;20946;-59
2022/09/08 02:25:21;;;;;;;3.72;2.30;;;;;;;9.09;78.37;99901.41;1704642;82;20555;-59
2022/09/08 02:27:53;;;;;;;4.92;2.70;;;;;;;8.98;78.20;99902.27;1708866;82;21632;-59
2022/09/08 02:30:20;;;;;;;3.47;2.42;;;;;;;8.89;78.19;99909.14;1715876;82;21082;-59
2022/09/08 02:32:48;;;;;;;3.52;2.33;;;;;;;8.80;78.29;99899.08;1696145;83;28038;-59
2022/09/08 02:35:14;;;;;;;;;;;;;;;8.74;78.57;99899.69;1693664;84;21055;-59
2022/09/08 02:37:40;;;;;;;5.50;2.85;;;;;;;8.69;78.77;99908.12;1687020;84;20496;-59
2022/09/08 02:40:09;;;;;;;4.78;2.10;;;;;;;8.61;78.66;99897.13;1688473;84;20960;-59
2022/09/08 02:42:36;;;;;;;6.45;2.95;;;;;;;8.56;78.65;99904.25;1697665;82;21934;-59
2022/09/08 02:45:04;;;;;;;6.87;2.45;;;;;;;8.56;79.10;99896.45;1697824;83;20923;-59
2022/09/08 02:47:33;;;;;;;3.52;2.60;;;;;;;8.63;79.17;99895.33;1696682;84;21473;-59
2022/09/08 02:50:03;;;;;;;7.50;2.35;;;;;;;8.67;78.99;99890.85;1700250;83;20911;-59
2022/09/08 02:52:31;;;;;;;3.22;1.60;;;;;;;8.83;79.29;99883.34;1700636;84;20979;-59
2022/09/08 02:54:58;;;;;;;3.75;1.90;;;;;;;9.05;79.28;99877.70;1699699;84;21059;-59
2022/09/08 02:57:25;;;;;;;3.52;2.10;;;;;;;9.29;79.19;99879.79;1699188;84;20993;-59
2022/09/08 02:59:51;;;;;;;2.50;1.40;;;;;;;9.46;79.09;99879.58;1699328;83;20875;-59
2022/09/08 03:02:18;;;;;;;2.80;1.80;;;;;;;9.57;78.99;99874.32;1699667;83;20907;-59
2022/09/08 03:04:45;;;;;;;3.37;1.40;;;;;;;9.56;78.75;99875.24;1700527;83;20982;-59
2022/09/08 03:07:12;;;;;;;3.77;1.80;;;;;;;9.50;78.59;99872.89;1695362;83;21475;-59
2022/09/08 03:09:39;;;;;;;3.05;1.52;;;;;;;9.43;78.48;99884.45;1694450;84;21494;-59
2022/09/08 03:12:06;;;;;;;3.67;1.90;;;;;;;9.30;78.40;99885.84;1699598;84;21006;-59
2022/09/08 03:14:32;;;;;;;4.37;1.32;;;;;;;9.19;78.54;99876.72;1696081;83;20930;-59
2022/09/08 03:16:59;;;;;;;2.00;1.23;;;;;;;9.14;78.56;99885.16;1701830;83;21583;-59
2022/09/08 03:19:26;;;;;;;4.63;1.70;;;;;;;9.12;78.65;99883.05;1702137;83;21858;-59
2022/09/08 03:21:52;;;;;;;3.33;2.22;;;;;;;9.13;78.57;99883.90;1698098;83;20922;-59
2022/09/08 03:24:19;;;;;;;3.95;1.87;;;;;;;9.11;78.46;99881.38;1696198;83;20998;-59
2022/09/08 03:26:45;;;;;;;4.10;1.57;;;;;;;9.04;78.40;99877.29;1699358;83;21025;-59
2022/09/08 03:29:12;;;;;;;2.40;1.63;;;;;;;8.95;78.52;99882.86;1700301;83;21535;-59
2022/09/08 03:31:39;;;;;;;3.53;1.97;;;;;;;8.89;78.51;99883.10;1700182;83;21149;-59
2022/09/08 03:34:06;;;;;;;3.08;1.72;;;;;;;8.84;78.48;99878.52;1699405;83;21487;-59
2022/09/08 03:36:33;;;;;;;4.62;1.92;;;;;;;8.78;78.63;99873.55;1698231;84;21424;-58
2022/09/08 03:39:01;;;;;;;5.00;1.53;;;;;;;8.78;78.54;99874.84;1700545;83;20966;-59
2022/09/08 03:41:28;;;;;;;12.98;2.20;;;;;;;8.78;78.62;99872.23;1701045;84;20966;-59
2022/09/08 03:43:55;;;;;;;5.08;1.50;;;;;;;8.81;78.56;99870.82;1698468;83;21965;-59
2022/09/08 03:46:22;;;;;;;4.92;1.52;;;;;;;8.87;78.55;99860.16;1699455;83;20908;-59
2022/09/08 03:48:49;;;;;;;3.55;1.50;;;;;;;8.94;78.57;99852.53;1701702;83;20902;-59
2022/09/08 03:51:24;;;;;;;2.37;1.30;;;;;;;9.04;78.61;99859.06;1698654;83;20882;-59
2022/09/08 03:53:47;;;;;;;5.17;1.80;;;;;;;9.13;78.60;99858.73;1696924;83;20879;-59
2022/09/08 03:56:14;;;;;;;7.00;2.23;;;;;;;9.16;78.38;99865.11;1700813;83;20988;-59
2022/09/08 03:58:42;;;;;;;2.00;1.57;;;;;;;9.11;78.20;99868.34;1707099;82;21603;-59
2022/09/08 04:01:16;;;;;;;4.37;1.72;;;;;;;9.02;78.07;99868.71;1704877;82;20911;-59
2022/09/08 04:03:43;;;;;;;4.08;1.75;;;;;;;8.92;78.06;99864.75;1697292;82;21410;-59
2022/09/08 04:06:10;;;;;;;4.10;1.90;;;;;;;8.89;78.18;99867.47;1705238;82;20942;-59
2022/09/08 04:08:37;;;;;;;4.53;1.50;;;;;;;8.88;78.12;99863.19;1699444;83;21444;-59
2022/09/08 04:11:06;;;;;;;4.30;2.02;;;;;;;8.90;78.33;99863.95;1695664;83;21001;-59
2022/09/08 04:13:33;;;;;;;6.22;2.30;;;;;;;8.89;78.34;99870.08;1697830;83;20967;-59
2022/09/08 04:16:00;;;;;;;3.30;1.60;;;;;;;8.91;78.26;99865.67;1699996;83;20949;-59
2022/09/08 04:18:26;;;;;;;4.72;1.60;;;;;;;8.87;78.18;99871.88;1682044;83;20955;-58
2022/09/08 04:21:02;;;;;;;8.60;1.87;;;;;;;8.95;78.52;99875.05;1692621;83;21049;-59
2022/09/08 04:23:30;;;;;;;3.42;1.47;;;;;;;9.29;78.70;99874.58;1698388;83;21811;-59
2022/09/08 04:26:01;;;;;;;4.92;2.15;;;;;;;9.78;78.52;99867.85;1673990;84;20961;-59
2022/09/08 04:28:28;;;;;;;2.98;1.50;;;;;;;10.03;77.61;99869.81;1695285;83;20949;-59
2022/09/08 04:30:55;;;;;;;6.78;1.77;;;;;;;9.86;77.20;99870.99;1692702;83;20902;-60
2022/09/08 04:33:22;;;;;;;6.17;2.20;;;;;;;9.62;77.28;99872.37;1694467;83;21145;-59
2022/09/08 04:35:48;;;;;;;2.72;1.37;;;;;;;9.45;77.46;99876.13;1695203;83;21485;-60
2022/09/08 04:38:15;;;;;;;4.45;2.20;;;;;;;9.36;77.63;99876.05;1697327;83;21010;-59
2022/09/08 04:40:42;;;;;;;3.73;1.90;;;;;;;9.32;77.72;99865.80;1694826;83;20992;-59
2022/09/08 04:43:09;;;;;;;4.30;2.30;;;;;;;9.42;78.09;99861.92;1694835;83;21013;-60
2022/09/08 04:45:36;;;;;;;3.90;2.20;;;;;;;9.97;78.54;99858.77;1709955;83;21164;-60
2022/09/08 04:48:03;;;;;;;19.27;3.98;;;;;;;10.55;78.18;99853.66;1694836;82;21021;-60
2022/09/08 04:50:30;;;;;;;7.35;2.40;;;;;;;11.10;77.96;99856.80;1692330;83;21018;-60
2022/09/08 04:52:56;;;;;;;5.20;2.30;;;;;;;11.49;77.45;99849.28;1700784;82;20910;-60
2022/09/08 04:55:23;;;;;;;3.57;2.30;;;;;;;12.08;77.50;99853.31;1698323;83;20992;-60
2022/09/08 04:57:50;;;;;;;4.17;2.42;;;;;;;12.81;77.20;99838.09;1697433;83;21041;-60
2022/09/08 05:00:18;;;;;;;2.80;2.00;;;;;;;13.57;77.06;99836.89;1695374;83;21031;-60
2022/09/08 05:02:46;;;;;;;6.10;2.27;;;;;;;14.17;76.74;99833.83;1691186;84;20946;-60
2022/09/08 05:05:13;;;;;;;2.35;1.80;;;;;;;14.55;75.29;99835.00;1688967;84;20910;-60
2022/09/08 05:07:40;;;;;;;2.83;1.70;;;;;;;14.87;75.62;99834.78;1688168;83;20958;-60
2022/09/08 05:10:07;;;;;;;3.80;1.87;;;;;;;15.29;75.12;99835.61;1690410;83;21061;-59
2022/09/08 05:12:34;;;;;;;4.03;1.75;;;;;;;15.76;75.26;99836.90;1692818;83;21042;-60
2022/09/08 05:15:01;;;;;;;5.45;1.92;;;;;;;16.20;75.00;99842.27;1695697;83;20962;-60
2022/09/08 05:17:29;;;;;;;2.95;1.72;;;;;;;16.70;74.61;99841.86;1690704;82;20883;-60
2022/09/08 05:19:56;;;;;;;3.87;2.00;;;;;;;17.06;74.04;99848.13;1704973;82;20911;-60
2022/09/08 05:22:23;;;;;;;2.02;1.52;;;;;;;17.42;73.94;99843.73;1695445;83;21675;-60
2022/09/08 05:24:50;;;;;;;3.55;1.62;;;;;;;17.51;73.07;99843.08;1702507;82;21005;-61
2022/09/08 05:27:16;;;;;;;1.75;1.35;;;;;;;17.63;72.87;99836.88;1709108;83;20970;-61
2022/09/08 05:29:43;;;;;;;7.70;1.50;;;;;;;17.90;73.15;99843.72;1688294;84;20951;-61
2022/09/08 05:32:10;;;;;;;2.37;1.45;;;;;;;18.23;72.20;99842.08;1707981;82;20930;-61
2022/09/08 05:34:37;;;;;;;11.45;1.95;;;;;;;18.56;72.41;99843.42;1683131;83;21062;-61
2022/09/08 05:37:03;;;;;;;2.98;1.57;;;;;;;18.86;71.95;99845.97;1688356;83;20867;-61
2022/09/08 05:39:30;;;;;;;3.05;1.62;;;;;;;19.06;71.47;99840.88;1686556;83;21444;-61
2022/09/08 05:41:57;;;;;;;25.37;3.12;;;;;;;19.21;70.38;99847.56;1690309;83;20957;-61
2022/09/08 05:44:24;;;;;;;14.83;4.00;;;;;;;19.24;70.17;99844.70;1685326;84;21054;-61
2022/09/08 05:46:50;;;;;;;;;;;;;;;19.42;69.59;99851.12;1691270;83;21411;-61
2022/09/08 05:49:17;;;;;;;4.55;1.62;;;;;;;19.44;68.32;99851.84;1697637;83;20156;-61
2022/09/08 05:51:44;;;;;;;6.42;2.00;;;;;;;19.49;68.00;99853.25;1694448;82;20981;-61
2022/09/08 05:54:11;;;;;;;3.60;1.75;;;;;;;19.29;67.67;99850.43;1689902;83;20897;-60
2022/09/08 05:56:37;;;;;;;5.78;1.42;;;;;;;18.97;66.84;99857.86;1700168;83;20958;-61
2022/09/08 05:59:04;;;;;;;4.92;1.47;;;;;;;18.74;66.45;99849.59;1710947;83;21043;-61
2022/09/08 06:01:33;;;;;;;2.85;1.72;;;;;;;18.85;66.13;99846.94;1692971;84;20938;-61
2022/09/08 06:04:01;;;;;;;6.15;1.55;;;;;;;18.93;65.71;99839.23;1688736;83;20941;-61
2022/09/08 06:06:29;;;;;;;2.95;1.77;;;;;;;18.83;64.17;99846.21;1717203;82;21437;-61
2022/09/08 06:08:59;;;;;;;3.25;1.52;;;;;;;18.52;64.58;99853.05;1699346;83;20930;-61
2022/09/08 06:11:25;;;;;;;1.87;1.60;;;;;;;18.65;64.42;99863.49;1700877;82;21168;-61
2022/09/08 06:13:52;;;;;;;22.87;11.30;;;;;;;18.80;63.81;99864.97;1702935;83;21319;-62
2022/09/08 06:16:20;;;;;;;4.40;2.35;;;;;;;18.86;63.61;99873.74;1697972;82;21011;-61
2022/09/08 06:18:48;;;;;;;3.10;1.57;;;;;;;18.48;62.42;99866.14;1698744;82;20994;-62
2022/09/08 06:21:19;;;;;;;7.22;1.40;;;;;;;18.10;62.16;99861.53;1687155;83;20952;-61
2022/09/08 06:23:53;;;;;;;3.40;1.70;;;;;;;17.99;62.44;99861.51;1697272;82;21026;-62
2022/09/08 06:26:51;;;;;;;1.85;1.30;;;;;;;17.94;62.04;99862.33;1698642;83;20886;-61
2022/09/08 06:29:42;;;;;;;1.50;1.20;;;;;;;17.80;61.48;99857.25;1711136;82;20867;-61
2022/09/08 06:32:29;;;;;;;4.03;1.45;;;;;;;17.63;60.69;99853.20;1685655;83;20910;-62
2022/09/08 06:35:16;;;;;;;3.20;1.42;;;;;;;17.87;61.32;99854.52;1674823;83;20945;-62
2022/09/08 06:37:53;;;;;;;1.70;1.15;;;;;;;18.10;60.39;99835.11;1624666;85;21125;-62
2022/09/08 06:40:41;;;;;;;1.92;1.30;;;;;;;18.35;60.43;99838.51;1628330;85;20957;-61
2022/09/08 06:43:19;;;;;;;1.82;1.35;;;;;;;18.52;59.94;99839.83;1630386;86;20967;-61
2022/09/08 06:45:53;;;;;;;3.10;1.55;;;;;;;18.48;59.47;99845.82;1635377;86;21034;-62
2022/09/08 06:48:31;;;;;;;5.00;1.67;;;;;;;18.32;59.05;99850.64;1629742;86;21617;-62
2022/09/08 06:51:14;;;;;;;;;;;;;;;18.11;58.71;99849.99;1647189;85;21049;-61
2022/09/08 06:54:05;;;;;;;3.37;1.40;;;;;;;18.15;59.01;99855.04;1620800;87;20125;-61
2022/09/08 06:56:51;;;;;;;3.08;1.40;;;;;;;18.28;58.84;99854.47;1597727;87;21521;-62
2022/09/08 06:59:45;;;;;;;4.20;1.45;;;;;;;18.22;58.18;99853.63;1604509;87;22905;-61
2022/09/08 07:02:49;;;;;;;1.15;1.02;;;;;;;18.22;57.58;99854.95;1648294;85;21015;-62
2022/09/08 07:05:36;;;;;;;2.90;1.62;;;;;;;18.17;57.59;99855.28;1640479;85;21218;-61
2022/09/08 07:08:28;;;;;;;4.25;1.62;;;;;;;18.15;57.75;99859.00;1586586;88;20958;-61
2022/09/08 07:10:59;;;;;;;1.77;1.42;;;;;;;17.88;56.66;99864.95;1580789;88;21537;-61
2022/09/08 07:13:36;;;;;;;6.30;1.65;;;;;;;17.46;56.47;99874.25;1587551;88;21549;-61
2022/09/08 07:16:30;;;;;;;4.75;1.70;;;;;;;17.32;57.08;99871.78;1580833;90;20960;-61
2022/09/08 07:19:22;;;;;;;5.47;1.70;;;;;;;17.32;56.97;99877.06;1576853;90;21036;-61
2022/09/08 07:22:12;;;;;;;8.40;1.50;;;;;;;17.32;56.77;99869.14;1558251;90;20950;-60
2022/09/08 07:24:41;;;;;;;3.80;1.20;;;;;;;17.21;56.29;99873.39;1581439;90;21023;-61
2022/09/08 07:27:14;;;;;;;2.42;1.22;;;;;;;16.93;55.74;99878.97;1578489;90;20941;-61
2022/09/08 07:29:45;;;;;;;4.15;1.35;;;;;;;16.73;55.03;99875.91;1579208;90;21508;-61
2022/09/08 07:32:17;;;;;;;5.47;1.20;;;;;;;16.64;55.71;99880.52;1579316;90;21051;-60
2022/09/08 07:34:57;;;;;;;3.60;1.52;;;;;;;16.60;55.09;99880.35;1577771;90;21061;-60
2022/09/08 07:37:32;;;;;;;2.15;1.32;;;;;;;16.57;54.96;99880.56;1575567;90;21012;-61
2022/09/08 07:40:15;;;;;;;2.12;1.20;;;;;;;16.71;55.12;99879.61;1574009;90;21024;-60
2022/09/08 07:42:43;;;;;;;5.42;1.82;;;;;;;16.76;54.39;99879.68;1578508;90;21019;-61
2022/09/08 07:45:12;;;;;;;2.70;1.50;;;;;;;16.80;54.83;99878.98;1640031;84;21126;-60
2022/09/08 07:48:09;;;;;;;4.60;1.55;;;;;;;16.89;54.50;99877.52;1695553;83;20907;-61
2022/09/08 07:50:54;;;;;;;5.08;1.82;;;;;;;16.86;54.30;99864.52;1695213;83;20966;-61
2022/09/08 07:54:01;;;;;;;2.90;1.40;;;;;;;16.95;54.28;99869.16;1686314;84;20947;-61
2022/09/08 07:56:47;;;;;;;6.00;1.52;;;;;;;17.05;54.38;99859.61;1675580;85;20941;-60
2022/09/08 07:59:44;;;;;;;3.67;1.10;;;;;;;17.22;54.21;99855.30;1714450;82;22023;-61
2022/09/08 08:02:41;;;;;;;15.13;1.72;;;;;;;17.39;54.25;99851.44;1687387;83;20871;-61
2022/09/08 08:05:19;;;;;;;2.95;1.17;;;;;;;17.45;53.40;99854.09;1687120;84;20896;-61
2022/09/08 08:08:15;;;;;;;5.17;1.20;;;;;;;17.39;53.37;99851.88;1688988;83;21163;-63
2022/09/08 08:10:56;;;;;;;6.95;1.32;;;;;;;17.48;52.95;99853.87;1689041;83;20998;-60
2022/09/08 08:13:37;;;;;;;11.20;1.30;;;;;;;17.50;52.65;99862.98;1685681;84;21061;-61
2022/09/08 08:16:18;;;;;;;9.38;2.60;;;;;;;17.45;52.27;99862.85;1683418;83;20975;-61
2022/09/08 08:19:11;;;;;;;7.78;4.37;;;;;;;17.44;52.38;99857.67;1679425;82;21567;-61
2022/09/08 08:22:01;;;;;;;8.80;1.72;;;;;;;17.59;52.05;99859.19;1680138;84;20918;-61
2022/09/08 08:24:45;;;;;;;6.50;1.30;;;;;;;17.63;51.73;99858.00;1693210;83;20973;-60
2022/09/08 08:27:19;;;;;;;4.03;1.45;;;;;;;17.54;51.32;99863.97;1691847;83;21267;-61
2022/09/08 08:30:11;;;;;;;3.77;1.85;;;;;;;17.52;50.53;99868.52;1693252;83;20981;-60
2022/09/08 08:32:42;;;;;;;3.00;1.20;;;;;;;17.54;50.65;99868.41;1694748;83;20954;-61
2022/09/08 08:35:30;;;;;;;5.00;1.30;;;;;;;17.60;50.42;99852.95;1693164;83;20926;-60
2022/09/08 08:37:58;;;;;;;3.22;1.22;;;;;;;17.75;50.61;99850.11;1702074;82;20966;-61
2022/09/08 08:40:45;;;;;;;6.05;1.77;;;;;;;17.98;50.25;99841.34;1697753;82;21166;-61
2022/09/08 08:43:35;;;;;;;2.85;1.47;;;;;;;18.09;50.59;99838.72;1696959;83;20946;-60
2022/09/08 08:46:45;;;;;;;4.37;1.25;;;;;;;18.27;50.21;99834.30;1692377;84;21030;-61
2022/09/08 08:49:29;;;;;;;5.03;1.32;;;;;;;18.19;49.98;99838.01;1692790;84;20903;-60
2022/09/08 08:52:23;;;;;;;8.58;1.45;;;;;;;18.23;49.60;99855.30;1643615;85;21640;-60
2022/09/08 08:55:22;;;;;;;2.72;1.10;;;;;;;18.15;49.59;99835.22;1638633;86;22472;-61
2022/09/08 08:58:03;;;;;;;3.98;1.37;;;;;;;18.39;49.92;99828.05;1642536;86;20962;-60
2022/09/08 09:01:08;;;;;;;4.95;1.32;;;;;;;18.48;49.14;99818.06;1642232;87;20994;-61
2022/09/08 09:03:58;;;;;;;12.78;1.75;;;;;;;18.35;48.48;99820.00;1642184;86;21532;-61
2022/09/08 09:07:00;;;;;;;7.83;1.60;;;;;;;18.15;47.91;99820.69;1643892;86;20914;-60
2022/09/08 09:10:10;;;;;;;2.87;1.22;;;;;;;18.16;47.62;99811.82;1638064;86;21853;-60
2022/09/08 09:13:06;;;;;;;2.00;1.12;;;;;;;18.05;47.88;99814.80;1639710;87;20971;-61
2022/09/08 09:15:44;;;;;;;4.90;1.50;;;;;;;18.24;48.36;99806.78;1638775;87;21562;-60
2022/09/08 09:18:28;;;;;;;3.33;1.17;;;;;;;18.36;48.13;99808.45;1641866;85;20899;-60
2022/09/08 09:21:06;;;;;;;6.70;1.92;;;;;;;18.29;47.92;99812.56;1640856;85;20990;-60
2022/09/08 09:24:01;;;;;;;8.68;1.35;;;;;;;18.27;47.48;99806.54;1638439;86;21039;-61
2022/09/08 09:26:34;;;;;;;4.00;1.85;;;;;;;18.24;47.53;99802.82;1619315;87;21013;-61
2022/09/08 09:29:24;;;;;;;4.53;1.37;;;;;;;18.28;47.07;99808.22;1656277;85;20946;-61
2022/09/08 09:32:04;;;;;;;2.83;1.40;;;;;;;18.27;46.51;99794.16;1674259;85;20899;-61
2022/09/08 09:35:24;;;;;;;4.40;1.35;;;;;;;18.35;46.65;99801.50;1675209;83;20969;-61
2022/09/08 09:38:29;;;;;;;5.78;1.27;;;;;;;18.45;46.42;99794.51;1615258;87;21159;-61
2022/09/08 09:41:11;;;;;;;4.87;1.30;;;;;;;18.56;46.01;99789.21;1611573;88;20994;-61
2022/09/08 09:43:52;;;;;;;3.00;1.15;;;;;;;18.54;45.64;99796.91;1645333;85;20938;-60
2022/09/08 09:46:30;;;;;;;4.97;1.60;;;;;;;18.47;45.72;99784.66;1651845;85;21006;-61
2022/09/08 09:49:25;;;;;;;4.80;1.10;;;;;;;18.63;46.22;99786.11;1658884;85;21068;-60
2022/09/08 09:52:29;;;;;;;5.47;1.35;;;;;;;18.71;46.07;99765.17;1628711;86;21924;-60
2022/09/08 09:55:23;;;;;;;4.03;1.32;;;;;;;18.78;45.97;99778.28;1629665;86;20969;-61
2022/09/08 09:58:19;;;;;;;11.20;1.40;;;;;;;18.73;45.55;99771.16;1628973;86;21489;-60
2022/09/08 10:01:09;;;;;;;2.27;1.30;;;;;;;18.62;45.51;99785.23;1604782;87;20919;-61
2022/09/08 10:04:11;;;;;;;7.35;1.45;;;;;;;18.49;45.16;99777.45;1591357;88;20987;-61
2022/09/08 10:06:49;;;;;;;3.50;0.98;;;;;;;18.53;44.99;99773.59;1594405;87;21069;-61
2022/09/08 10:09:20;;;;;;;3.50;1.15;;;;;;;18.55;44.98;99778.29;1609293;88;20950;-60
2022/09/08 10:12:04;;;;;;;19.45;2.55;;;;;;;18.55;44.91;99782.25;1636116;85;20981;-60
2022/09/08 10:15:01;;;;;;;6.72;1.50;;;;;;;18.69;45.48;99780.32;1648519;84;20966;-60
2022/09/08 10:17:36;;;;;;;5.47;1.00;;;;;;;18.93;45.63;99767.80;1635872;85;20916;-60
2022/09/08 10:20:26;;;;;;;7.30;1.12;;;;;;;19.18;45.59;99777.67;1655295;85;21121;-60
2022/09/08 10:23:18;;;;;;;4.15;1.00;;;;;;;19.18;45.17;99776.35;1613998;87;20990;-60
2022/09/08 10:26:02;;;;;;;4.47;1.00;;;;;;;19.01;45.23;99781.22;1646777;85;21339;-61
2022/09/08 10:29:03;;;;;;;3.75;1.37;;;;;;;18.92;45.43;99774.03;1641614;85;20982;-60
2022/09/08 10:32:13;;;;;;;4.15;1.15;;;;;;;18.97;45.36;99771.86;1642881;85;20961;-60
2022/09/08 10:35:04;;;;;;;10.65;1.37;;;;;;;18.91;45.49;99765.75;1662652;83;21080;-60
2022/09/08 10:38:07;;;;;;;6.78;1.20;;;;;;;18.86;45.87;99750.73;1679884;84;21476;-61
2022/09/08 10:40:58;;;;;;;4.47;1.27;;;;;;;18.87;45.65;99757.69;1685560;84;20936;-61
2022/09/08 10:43:58;;;;;;;7.03;1.27;;;;;;;18.86;45.63;99752.05;1666440;84;21044;-61
2022/09/08 10:47:11;;;;;;;2.27;0.98;;;;;;;18.88;45.96;99754.09;1671337;84;21626;-61
2022/09/08 10:50:19;;;;;;;2.33;1.00;;;;;;;18.92;46.25;99759.48;1684928;84;21894;-62
2022/09/08 10:53:11;;;;;;;2.92;1.60;;;;;;;19.04;46.34;99747.54;1686959;84;21550;-62
2022/09/08 10:56:00;;;;;;;2.45;1.12;;;;;;;19.10;46.19;99743.06;1691612;83;21048;-60
2022/09/08 10:58:50;;;;;;;5.97;1.12;;;;;;;19.11;45.66;99742.11;1714448;83;20918;-61
2022/09/08 11:01:55;;;;;;;5.75;1.27;;;;;;;18.99;45.46;99749.27;1677563;84;21126;-60
2022/09/08 11:05:14;;;;;;;2.95;1.07;;;;;;;19.04;45.39;99756.31;1694741;83;21640;-60
2022/09/08 11:08:24;;;;;;;2.42;1.00;;;;;;;18.99;44.81;99742.64;1710869;82;20962;-61
2022/09/08 11:11:32;;;;;;;4.05;1.20;;;;;;;18.95;44.72;99740.71;1688539;83;20939;-60
2022/09/08 11:14:38;;;;;;;4.60;0.93;;;;;;;19.07;44.94;99747.28;1693182;84;20919;-60
2022/09/08 11:17:25;;;;;;;4.70;1.05;;;;;;;19.05;44.98;99749.24;1690675;83;20959;-61
2022/09/08 11:20:32;;;;;;;2.02;1.00;;;;;;;19.10;44.89;99744.38;1685338;83;21148;-60
2022/09/08 11:23:31;;;;;;;5.35;1.37;;;;;;;19.15;45.22;99747.50;1687884;84;21067;-61
2022/09/08 11:26:51;;;;;;;3.50;1.12;;;;;;;19.35;45.00;99759.08;1705453;82;20978;-60
2022/09/08 11:29:21;;;;;;;5.20;0.80;;;;;;;19.19;44.45;99757.72;1703060;83;20973;-61
2022/09/08 11:32:31;;;;;;;2.08;1.20;;;;;;;19.10;44.46;99733.80;1707200;83;22207;-61
2022/09/08 11:35:30;;;;;;;4.87;1.15;;;;;;;19.05;44.58;99739.98;1698867;83;21761;-62
2022/09/08 11:38:14;;;;;;;3.92;1.20;;;;;;;18.99;44.31;99739.51;1705176;82;21412;-61
2022/09/08 11:41:19;;;;;;;2.50;0.98;;;;;;;18.89;44.34;99731.95;1714671;82;20979;-61
2022/09/08 11:44:18;;;;;;;4.53;1.00;;;;;;;18.85;44.46;99719.96;1651206;86;20909;-61
2022/09/08 11:47:17;;;;;;;1.72;0.80;;;;;;;18.93;44.45;99717.53;1651931;85;20942;-61
2022/09/08 11:50:22;;;;;;;1.60;1.10;;;;;;;19.06;44.86;99711.22;1648244;86;21910;-61
2022/09/08 11:53:27;;;;;;;3.37;1.30;;;;;;;19.20;44.60;99724.97;1615307;86;21031;-62
2022/09/08 11:56:24;;;;;;;1.32;1.00;;;;;;;18.97;44.62;99720.75;1631065;86;21009;-62
2022/09/08 11:59:20;;;;;;;3.83;1.02;;;;;;;18.98;45.22;99732.52;1604037;84;21526;-63
2022/09/08 12:02:43;;;;;;;2.15;1.50;;;;;;;19.08;45.30;99727.81;1650621;85;20899;-59
2022/09/08 12:05:42;;;;;;;1.52;0.70;;;;;;;19.03;45.24;99723.38;1651745;85;21306;-59
2022/09/08 12:08:20;;;;;;;2.55;0.80;;;;;;;19.16;45.21;99722.73;1650560;85;21145;-59
2022/09/08 12:11:30;;;;;;;2.27;0.95;;;;;;;19.00;45.10;99708.59;1652107;85;21490;-60
2022/09/08 12:14:02;;;;;;;1.70;0.65;;;;;;;18.93;45.23;99702.11;1648339;85;20972;-59
2022/09/08 12:17:03;;;;;;;2.60;0.90;;;;;;;18.87;45.38;99719.33;1616163;86;20983;-59
2022/09/08 12:19:56;;;;;;;2.12;0.70;;;;;;;18.87;45.54;99688.91;1662927;83;21276;-60
2022/09/08 12:22:37;;;;;;;2.45;0.72;;;;;;;18.85;45.77;99700.12;1685013;83;20906;-60
2022/09/08 12:25:18;;;;;;;2.27;0.90;;;;;;;18.99;45.80;99693.20;1671767;84;21074;-59
2022/09/08 12:28:25;;;;;;;3.35;1.32;;;;;;;18.90;45.79;99695.75;1695048;83;21113;-59
2022/09/08 12:31:03;;;;;;;1.00;0.70;;;;;;;18.88;45.64;99706.97;1600232;88;20991;-60
2022/09/08 12:34:05;;;;;;;1.72;0.70;;;;;;;18.84;45.77;99689.16;1631579;86;21031;-59
2022/09/08 12:36:53;;;;;;;1.12;0.60;;;;;;;18.91;46.09;99689.03;1595642;87;21156;-59